createdAt,value
2019-03-23T00:01:26.507Z,37.3
2019-03-23T00:11:25.716Z,37.3
2019-03-23T00:21:24.930Z,37.3
2019-03-23T00:31:24.145Z,37.3
2019-03-23T00:41:23.358Z,37.3
2019-03-23T00:51:22.586Z,37.3
2019-03-23T01:01:21.898Z,37.3
2019-03-23T01:11:21.220Z,37.3
2019-03-23T01:21:20.532Z,37.3
2019-03-23T01:31:19.848Z,37.3
2019-03-23T01:41:19.164Z,37.3
2019-03-23T01:51:18.431Z,37.3
2019-03-23T02:01:17.642Z,37.3
2019-03-23T02:11:16.856Z,37.3
2019-03-23T02:21:16.068Z,37.2
2019-03-23T02:31:15.283Z,37.2
2019-03-23T02:41:14.497Z,37.2
2019-03-23T02:51:13.710Z,37.1
2019-03-23T03:01:12.927Z,37.2
2019-03-23T03:11:12.138Z,37.1
2019-03-23T03:14:54.766Z,37.1
2019-03-23T03:26:49.816Z,37.1
2019-03-23T03:36:49.030Z,37.1
2019-03-23T03:46:48.241Z,37.1
2019-03-23T03:56:47.455Z,37.1
2019-03-23T04:02:32.685Z,37.1
2019-03-23T04:07:10.607Z,37.1
2019-03-23T04:11:39.904Z,37.1
2019-03-23T04:21:39.114Z,37
2019-03-23T04:31:38.327Z,37
2019-03-23T04:41:37.538Z,37
2019-03-23T04:51:36.749Z,37
2019-03-23T05:01:35.963Z,34.6
2019-03-23T05:11:35.193Z,33
2019-03-23T05:21:34.509Z,33.3
2019-03-23T05:31:33.830Z,25.8
2019-03-23T05:41:33.140Z,24.5
2019-03-23T05:51:32.457Z,24.6
2019-03-23T06:01:31.770Z,24.4
2019-03-23T06:11:31.034Z,23.9
2019-03-23T06:21:30.249Z,24.3
2019-03-23T06:31:29.467Z,24.8
2019-03-23T06:41:28.696Z,25.5
2019-03-23T06:51:27.892Z,25.9
2019-03-23T07:01:27.108Z,26.7
2019-03-23T07:11:26.325Z,26.9
2019-03-23T07:21:25.539Z,27.6
2019-03-23T07:31:24.750Z,27.9
2019-03-23T07:41:23.967Z,28.7
2019-03-23T07:51:23.183Z,29.6
2019-03-23T08:01:22.398Z,30.6
2019-03-23T08:11:21.614Z,31.6
2019-03-23T08:21:20.829Z,32.4
2019-03-23T08:31:20.051Z,33.1
2019-03-23T08:41:19.258Z,33.7
2019-03-23T08:51:18.474Z,34.4
2019-03-23T09:01:17.690Z,35.1
2019-03-23T09:11:20.541Z,35.8
2019-03-23T09:21:16.866Z,36.3
2019-03-23T09:31:16.085Z,37
2019-03-23T09:41:15.299Z,37.3
2019-03-23T09:51:14.515Z,37.4
2019-03-23T10:01:13.732Z,37.9
2019-03-23T10:11:12.948Z,38.3
2019-03-23T10:21:12.165Z,38.9
2019-03-23T10:31:11.379Z,39.7
2019-03-23T10:41:10.594Z,40.3
2019-03-23T10:51:09.810Z,40.9
2019-03-23T11:01:09.029Z,41.4
2019-03-23T11:11:08.244Z,42.1
2019-03-23T11:21:07.468Z,42.8
2019-03-23T11:31:06.687Z,43.3
2019-03-23T11:41:05.906Z,43.9
2019-03-23T11:51:05.138Z,44
2019-03-23T12:01:04.355Z,44.7
2019-03-23T12:11:03.574Z,45.1
2019-03-23T12:21:02.791Z,45.5
2019-03-23T12:31:02.010Z,45.9
2019-03-23T12:41:10.128Z,46.4
2019-03-23T12:51:00.454Z,46.9
2019-03-23T13:00:59.662Z,47.3
2019-03-23T13:10:58.878Z,47.9
2019-03-23T13:20:58.097Z,48.3
2019-03-23T13:30:57.310Z,48.7
2019-03-23T13:40:56.527Z,49.1
2019-03-23T13:50:55.744Z,49.3
2019-03-23T14:00:54.962Z,49.6
2019-03-23T14:10:54.179Z,50.1
2019-03-23T14:20:53.395Z,50.6
2019-03-23T14:30:52.613Z,50.6
2019-03-23T14:40:51.831Z,50.1
2019-03-23T14:47:06.027Z,50.3
2019-03-23T14:57:05.063Z,50.6
2019-03-23T15:07:04.281Z,50.8
2019-03-23T15:17:03.501Z,50.4
2019-03-23T15:26:44.739Z,46.1
2019-03-23T15:36:43.954Z,46.2
2019-03-23T15:46:43.171Z,46.4
2019-03-23T15:56:42.390Z,46.4
2019-03-23T16:06:41.614Z,45.8
2019-03-23T16:16:40.831Z,45.1
2019-03-23T16:26:40.063Z,44.4
2019-03-23T16:36:39.391Z,44.3
2019-03-23T16:46:38.717Z,44.1
2019-03-23T16:56:38.045Z,36.6
2019-03-23T17:06:45.950Z,36.6
2019-03-23T17:16:36.692Z,37
2019-03-23T17:26:35.962Z,34.1
2019-03-23T17:36:35.185Z,32.4
2019-03-23T17:46:34.399Z,31.9
2019-03-23T17:56:33.618Z,30
2019-03-23T18:06:32.837Z,28.1
2019-03-23T18:16:33.334Z,27.1
2019-03-23T18:26:32.552Z,27.1
2019-03-23T18:36:31.769Z,27.3
2019-03-23T18:46:30.988Z,26.4
2019-03-23T18:56:30.205Z,26.6
2019-03-23T19:00:36.716Z,26.6
2019-03-23T19:10:35.933Z,26.6
2019-03-23T19:20:35.159Z,26.8
2019-03-23T19:30:34.368Z,26.9
2019-03-23T19:34:14.819Z,26.9
2019-03-23T19:44:14.034Z,25.6
2019-03-23T19:54:13.273Z,25.2
2019-03-23T20:04:12.478Z,25
2019-03-23T20:14:11.686Z,23.1
2019-03-23T20:24:10.905Z,22.1
2019-03-23T20:29:54.718Z,22.4
2019-03-23T20:39:53.937Z,22.2
2019-03-23T20:49:53.156Z,22.3
2019-03-23T20:59:52.378Z,22.3
2019-03-23T21:11:00.573Z,22.4
2019-03-23T21:20:59.790Z,22.6
2019-03-23T21:30:59.008Z,22.6
2019-03-23T21:40:58.227Z,22.7
2019-03-23T21:50:57.443Z,22.8
2019-03-23T22:00:56.661Z,22.9
2019-03-23T22:10:55.888Z,22.9
2019-03-23T22:20:55.208Z,23
2019-03-23T22:30:54.529Z,23.1
2019-03-23T22:40:53.847Z,23.1
2019-03-23T22:50:53.169Z,23.3
2019-03-23T23:00:52.495Z,23.3
2019-03-23T23:10:51.763Z,23.3
2019-03-23T23:20:50.978Z,23.4
2019-03-23T23:30:50.195Z,23.4
2019-03-23T23:40:49.411Z,23.5
2019-03-23T23:50:48.626Z,23.6
